createdAt,value
2022-10-08T00:00:47.487Z,0.00
2022-10-08T00:01:47.449Z,0.00
2022-10-08T00:02:47.715Z,0.00
2022-10-08T00:03:47.359Z,0.00
2022-10-08T00:04:47.228Z,0.00
2022-10-08T00:05:47.170Z,0.00
2022-10-08T00:06:47.103Z,0.00
2022-10-08T00:07:47.034Z,0.00
2022-10-08T00:08:46.968Z,0.00
2022-10-08T00:09:46.907Z,0.00
2022-10-08T00:10:46.838Z,0.00
2022-10-08T00:11:46.781Z,0.00
2022-10-08T00:12:47.013Z,0.00
2022-10-08T00:13:46.647Z,0.00
2022-10-08T00:14:46.579Z,0.00
2022-10-08T00:15:46.704Z,0.00
2022-10-08T00:16:46.462Z,0.00
2022-10-08T00:17:46.392Z,0.00
2022-10-08T00:18:46.320Z,0.00
2022-10-08T00:19:46.259Z,0.00
2022-10-08T00:20:46.195Z,0.00
2022-10-08T00:21:46.132Z,0.00
2022-10-08T00:22:46.373Z,0.00
2022-10-08T00:23:46.000Z,0.00
2022-10-08T00:24:45.933Z,0.00
2022-10-08T00:25:45.875Z,0.00
2022-10-08T00:26:45.806Z,0.00
2022-10-08T00:27:45.750Z,0.00
2022-10-08T00:28:45.750Z,0.00
2022-10-08T00:29:45.610Z,0.00
2022-10-08T00:30:45.544Z,0.00
2022-10-08T00:31:45.727Z,0.00
2022-10-08T00:32:45.724Z,0.00
2022-10-08T00:33:45.350Z,0.00
2022-10-08T00:34:45.286Z,0.00
2022-10-08T00:35:45.223Z,0.00
2022-10-08T00:36:45.159Z,0.00
2022-10-08T00:37:45.091Z,0.00
2022-10-08T00:38:45.044Z,0.00
2022-10-08T00:39:44.967Z,0.00
2022-10-08T00:40:44.899Z,0.00
2022-10-08T00:41:44.840Z,0.00
2022-10-08T00:42:45.126Z,0.00
2022-10-08T00:43:44.705Z,0.00
2022-10-08T00:44:44.638Z,0.00
2022-10-08T00:45:44.729Z,0.00
2022-10-08T00:46:44.509Z,0.00
2022-10-08T00:47:44.445Z,0.00
2022-10-08T00:48:44.379Z,0.00
2022-10-08T00:49:44.313Z,0.00
2022-10-08T00:50:44.251Z,0.00
2022-10-08T00:51:44.181Z,0.00
2022-10-08T00:52:44.406Z,0.00
2022-10-08T00:53:44.054Z,0.00
2022-10-08T00:54:43.993Z,0.00
2022-10-08T00:55:44.261Z,0.00
2022-10-08T00:56:43.862Z,0.00
2022-10-08T00:57:43.799Z,0.00
2022-10-08T00:58:43.731Z,0.00
2022-10-08T00:59:43.665Z,0.00
2022-10-08T01:00:43.682Z,0.00
2022-10-08T01:01:43.782Z,0.00
2022-10-08T01:02:43.740Z,0.00
2022-10-08T01:03:43.407Z,0.00
2022-10-08T01:04:43.342Z,0.00
2022-10-08T01:05:43.295Z,0.00
2022-10-08T01:06:43.212Z,0.00
2022-10-08T01:07:43.147Z,0.00
2022-10-08T01:08:43.082Z,0.00
2022-10-08T01:09:43.017Z,0.00
2022-10-08T01:10:42.952Z,0.00
2022-10-08T01:11:42.893Z,0.00
2022-10-08T01:12:42.824Z,0.00
2022-10-08T01:13:42.759Z,0.00
2022-10-08T01:14:42.697Z,0.00
2022-10-08T01:15:42.642Z,0.00
2022-10-08T01:16:42.634Z,0.00
2022-10-08T01:17:42.500Z,0.00
2022-10-08T01:18:42.444Z,0.00
2022-10-08T01:19:42.367Z,0.00
2022-10-08T01:20:42.308Z,0.00
2022-10-08T01:21:42.243Z,0.00
2022-10-08T01:22:42.176Z,0.00
2022-10-08T01:23:42.107Z,0.00
2022-10-08T01:24:42.045Z,0.00
2022-10-08T01:25:41.983Z,0.00
2022-10-08T01:26:41.915Z,0.00
2022-10-08T01:27:41.851Z,0.00
2022-10-08T01:28:41.863Z,0.00
2022-10-08T01:29:41.722Z,0.00
2022-10-08T01:30:41.658Z,0.00
2022-10-08T01:31:41.646Z,0.00
2022-10-08T01:32:41.527Z,0.00
2022-10-08T01:33:41.463Z,0.00
2022-10-08T01:34:41.398Z,0.00
2022-10-08T01:35:41.335Z,0.00
2022-10-08T01:36:41.273Z,0.00
2022-10-08T01:37:41.203Z,0.00
2022-10-08T01:38:41.148Z,0.00
2022-10-08T01:39:41.074Z,0.00
2022-10-08T01:40:41.013Z,0.00
2022-10-08T01:41:40.943Z,0.00
2022-10-08T01:42:40.886Z,0.00
2022-10-08T01:43:40.816Z,0.00
2022-10-08T01:44:40.751Z,0.00
2022-10-08T01:45:40.718Z,0.00
2022-10-08T01:46:40.625Z,0.00
2022-10-08T01:47:40.561Z,0.00
2022-10-08T01:48:40.501Z,0.00
2022-10-08T01:49:40.433Z,0.00
2022-10-08T01:50:40.367Z,0.00
2022-10-08T01:51:40.300Z,0.00
2022-10-08T01:52:40.241Z,0.00
2022-10-08T01:53:40.168Z,0.00
2022-10-08T01:54:40.108Z,0.00
2022-10-08T01:55:40.048Z,0.00
2022-10-08T01:56:39.984Z,0.00
2022-10-08T01:57:39.912Z,0.00
2022-10-08T01:58:39.851Z,0.00
2022-10-08T01:59:39.791Z,0.00
2022-10-08T02:00:39.743Z,0.00
2022-10-08T02:01:39.663Z,0.00
2022-10-08T02:02:39.655Z,0.00
2022-10-08T02:03:39.527Z,0.00
2022-10-08T02:04:39.463Z,0.00
2022-10-08T02:05:39.400Z,0.00
2022-10-08T02:06:39.336Z,0.00
2022-10-08T02:07:39.269Z,0.00
2022-10-08T02:08:39.205Z,0.00
2022-10-08T02:09:39.142Z,0.00
2022-10-08T02:10:39.082Z,0.00
2022-10-08T02:11:39.017Z,0.00
2022-10-08T02:12:38.954Z,0.00
2022-10-08T02:13:38.883Z,0.00
2022-10-08T02:14:38.820Z,0.00
2022-10-08T02:15:38.753Z,0.00
2022-10-08T02:16:38.738Z,0.00
2022-10-08T02:17:38.692Z,0.00
2022-10-08T02:18:38.561Z,0.00
2022-10-08T02:19:38.509Z,0.00
2022-10-08T02:20:38.433Z,0.00
2022-10-08T02:21:38.370Z,0.00
2022-10-08T02:22:38.304Z,0.00
2022-10-08T02:23:38.237Z,0.00
2022-10-08T02:24:38.179Z,0.00
2022-10-08T02:25:38.109Z,0.00
2022-10-08T02:26:38.047Z,0.00
2022-10-08T02:27:37.984Z,0.00
2022-10-08T02:28:37.996Z,0.00
2022-10-08T02:29:37.852Z,0.00
2022-10-08T02:30:37.789Z,0.00
2022-10-08T02:31:37.799Z,0.00
2022-10-08T02:32:37.671Z,0.00
2022-10-08T02:33:37.595Z,0.00
2022-10-08T02:34:37.534Z,0.00
2022-10-08T02:35:37.465Z,0.00
2022-10-08T02:36:37.440Z,0.00
2022-10-08T02:37:37.351Z,0.00
2022-10-08T02:38:37.282Z,0.00
2022-10-08T02:39:37.212Z,0.00
2022-10-08T02:40:37.146Z,0.00
2022-10-08T02:41:37.084Z,0.00
2022-10-08T02:42:37.052Z,0.00
2022-10-08T02:43:36.955Z,0.00
2022-10-08T02:44:36.894Z,0.00
2022-10-08T02:45:36.891Z,0.00
2022-10-08T02:46:36.785Z,0.00
2022-10-08T02:47:36.702Z,0.00
2022-10-08T02:48:36.634Z,0.00
2022-10-08T02:49:36.567Z,0.00
2022-10-08T02:50:36.509Z,0.00
2022-10-08T02:51:36.436Z,0.00
2022-10-08T02:52:36.378Z,0.00
2022-10-08T02:53:36.309Z,0.00
2022-10-08T02:54:36.246Z,0.00
2022-10-08T02:55:36.185Z,0.00
2022-10-08T02:56:36.143Z,0.00
2022-10-08T02:57:36.053Z,0.00
2022-10-08T02:58:35.993Z,0.00
2022-10-08T02:59:35.925Z,0.00
2022-10-08T03:00:35.866Z,0.00
2022-10-08T03:01:35.831Z,0.00
2022-10-08T03:02:35.818Z,0.00
2022-10-08T03:03:35.667Z,0.00
2022-10-08T03:04:35.615Z,0.00
2022-10-08T03:05:35.545Z,0.00
2022-10-08T03:06:35.475Z,0.00
2022-10-08T03:07:35.418Z,0.00
2022-10-08T03:08:35.351Z,0.00
2022-10-08T03:09:35.307Z,0.00
2022-10-08T03:10:35.221Z,0.00
2022-10-08T03:11:35.154Z,0.00
2022-10-08T03:12:35.093Z,0.00
2022-10-08T03:13:35.024Z,0.00
2022-10-08T03:14:34.963Z,0.00
2022-10-08T03:15:34.902Z,0.00
2022-10-08T03:16:34.888Z,0.00
2022-10-08T03:17:34.770Z,0.00
2022-10-08T03:18:34.710Z,0.00
2022-10-08T03:19:34.638Z,0.00
2022-10-08T03:20:34.576Z,0.00
2022-10-08T03:21:34.510Z,0.00
2022-10-08T03:22:34.463Z,0.00
2022-10-08T03:23:34.392Z,0.00
2022-10-08T03:24:34.320Z,0.00
2022-10-08T03:25:34.257Z,0.00
2022-10-08T03:26:34.189Z,0.00
2022-10-08T03:27:34.123Z,0.00
2022-10-08T03:28:34.115Z,0.00
2022-10-08T03:29:33.998Z,0.00
2022-10-08T03:30:33.958Z,0.00
2022-10-08T03:31:33.868Z,0.00
2022-10-08T03:32:33.805Z,0.00
2022-10-08T03:33:33.738Z,0.00
2022-10-08T03:34:33.675Z,0.00
2022-10-08T03:35:33.611Z,0.00
2022-10-08T03:36:33.558Z,0.00
2022-10-08T03:37:33.489Z,0.00
2022-10-08T03:38:33.418Z,0.00
2022-10-08T03:39:33.352Z,0.00
2022-10-08T03:40:33.289Z,0.00
2022-10-08T03:41:33.253Z,0.00
2022-10-08T03:42:33.162Z,0.00
2022-10-08T03:43:33.102Z,0.00
2022-10-08T03:44:33.036Z,0.00
2022-10-08T03:45:32.965Z,0.00
2022-10-08T03:46:32.983Z,0.00
2022-10-08T03:47:32.836Z,0.00
2022-10-08T03:48:32.775Z,0.00
2022-10-08T03:49:32.709Z,0.00
2022-10-08T03:50:32.647Z,0.00
2022-10-08T03:51:32.579Z,0.00
2022-10-08T03:52:32.516Z,0.00
2022-10-08T03:53:32.452Z,0.00
2022-10-08T03:54:32.390Z,0.00
2022-10-08T03:55:32.324Z,0.00
2022-10-08T03:56:32.276Z,0.00
2022-10-08T03:57:32.195Z,0.00
2022-10-08T03:58:32.130Z,0.00
2022-10-08T03:59:32.070Z,0.00
2022-10-08T04:00:32.011Z,0.00
2022-10-08T04:01:32.014Z,0.00
2022-10-08T04:02:31.940Z,0.00
2022-10-08T04:03:31.818Z,0.00
2022-10-08T04:04:31.744Z,0.00
2022-10-08T04:05:31.685Z,0.00
2022-10-08T04:06:31.616Z,0.00
2022-10-08T04:07:31.550Z,0.00
2022-10-08T04:08:31.486Z,0.00
2022-10-08T04:09:31.424Z,0.00
2022-10-08T04:10:31.358Z,0.00
2022-10-08T04:11:31.291Z,0.00
2022-10-08T04:12:31.236Z,0.00
2022-10-08T04:13:31.165Z,0.00
2022-10-08T04:14:31.099Z,0.00
2022-10-08T04:15:31.080Z,0.00
2022-10-08T04:16:30.976Z,0.00
2022-10-08T04:17:30.908Z,0.00
2022-10-08T04:18:30.855Z,0.00
2022-10-08T04:19:30.785Z,0.00
2022-10-08T04:20:30.715Z,0.00
2022-10-08T04:21:30.648Z,0.00
2022-10-08T04:22:30.590Z,0.00
2022-10-08T04:23:30.525Z,0.00
2022-10-08T04:24:30.461Z,0.00
2022-10-08T04:25:30.392Z,0.00
2022-10-08T04:26:30.337Z,0.00
2022-10-08T04:27:30.287Z,0.00
2022-10-08T04:28:32.978Z,0.00
2022-10-08T04:29:30.143Z,0.00
2022-10-08T04:30:30.071Z,0.00
2022-10-08T04:31:30.139Z,0.00
2022-10-08T04:32:29.956Z,0.00
2022-10-08T04:33:29.878Z,0.00
2022-10-08T04:34:29.815Z,0.00
2022-10-08T04:35:29.758Z,0.00
2022-10-08T04:36:29.686Z,0.00
2022-10-08T04:37:29.636Z,0.00
2022-10-08T04:38:29.554Z,0.00
2022-10-08T04:39:29.489Z,0.00
2022-10-08T04:40:29.428Z,0.00
2022-10-08T04:41:29.360Z,0.00
2022-10-08T04:42:29.297Z,0.00
2022-10-08T04:43:29.233Z,0.00
2022-10-08T04:44:29.172Z,0.00
2022-10-08T04:45:29.114Z,0.00
2022-10-08T04:46:29.181Z,0.00
2022-10-08T04:47:28.993Z,0.00
2022-10-08T04:48:28.912Z,0.00
2022-10-08T04:49:28.860Z,0.00
2022-10-08T04:50:28.782Z,0.00
2022-10-08T04:51:28.726Z,4.00
2022-10-08T04:52:28.656Z,4.00
2022-10-08T04:53:28.590Z,0.00
2022-10-08T04:54:28.529Z,4.00
2022-10-08T04:55:28.462Z,4.00
2022-10-08T04:56:28.397Z,4.00
2022-10-08T04:57:28.333Z,4.00
2022-10-08T04:58:28.274Z,8.00
2022-10-08T04:59:28.205Z,8.00
2022-10-08T05:00:28.144Z,12.00
2022-10-08T05:01:28.211Z,8.00
2022-10-08T05:02:28.060Z,12.00
2022-10-08T05:03:27.947Z,16.00
2022-10-08T05:04:27.881Z,20.00
2022-10-08T05:05:27.817Z,20.00
2022-10-08T05:06:27.755Z,20.00
2022-10-08T05:07:27.691Z,28.00
2022-10-08T05:08:27.631Z,28.00
2022-10-08T05:09:27.564Z,36.00
2022-10-08T05:10:27.496Z,40.00
2022-10-08T05:11:27.444Z,44.00
2022-10-08T05:12:27.367Z,48.00
2022-10-08T05:13:27.302Z,52.00
2022-10-08T05:14:27.237Z,60.00
2022-10-08T05:15:27.184Z,64.00
2022-10-08T05:16:27.113Z,68.00
2022-10-08T05:17:27.045Z,76.00
2022-10-08T05:18:26.983Z,80.00
2022-10-08T05:19:26.917Z,92.00
2022-10-08T05:20:26.855Z,96.00
2022-10-08T05:21:26.796Z,108.00
2022-10-08T05:22:26.722Z,112.00
2022-10-08T05:23:26.658Z,120.00
2022-10-08T05:24:26.607Z,128.00
2022-10-08T05:25:26.529Z,132.00
2022-10-08T05:26:46.726Z,140.00
2022-10-08T05:27:26.411Z,148.00
2022-10-08T05:28:26.393Z,152.00
2022-10-08T05:29:26.269Z,156.00
2022-10-08T05:30:26.205Z,160.00
2022-10-08T05:31:26.216Z,164.00
2022-10-08T05:32:26.074Z,172.00
2022-10-08T05:33:26.013Z,176.00
2022-10-08T05:34:25.945Z,180.00
2022-10-08T05:35:25.881Z,184.00
2022-10-08T05:36:25.818Z,192.00
2022-10-08T05:37:25.752Z,192.00
2022-10-08T05:38:25.700Z,204.00
2022-10-08T05:39:25.622Z,212.00
2022-10-08T05:40:25.558Z,224.00
2022-10-08T05:41:25.495Z,232.00
2022-10-08T05:42:25.427Z,240.00
2022-10-08T05:43:25.364Z,256.00
2022-10-08T05:44:25.303Z,276.00
2022-10-08T05:45:25.242Z,280.00
2022-10-08T05:46:25.212Z,284.00
2022-10-08T05:47:25.106Z,292.00
2022-10-08T05:48:25.044Z,300.00
2022-10-08T05:49:24.995Z,304.00
2022-10-08T05:50:24.910Z,320.00
2022-10-08T05:51:24.852Z,324.00
2022-10-08T05:52:24.789Z,336.00
2022-10-08T05:53:24.726Z,344.00
2022-10-08T05:54:24.662Z,356.00
2022-10-08T05:55:24.591Z,368.00
2022-10-08T05:56:24.526Z,384.00
2022-10-08T05:57:24.458Z,392.00
2022-10-08T05:58:28.495Z,400.00
2022-10-08T05:59:24.331Z,408.00
2022-10-08T06:00:24.265Z,412.00
2022-10-08T06:01:24.214Z,424.00
2022-10-08T06:02:24.179Z,436.00
2022-10-08T06:03:24.072Z,444.00
2022-10-08T06:04:24.046Z,460.00
2022-10-08T06:05:23.961Z,480.00
2022-10-08T06:06:23.877Z,496.00
2022-10-08T06:07:23.814Z,508.00
2022-10-08T06:08:23.750Z,528.00
2022-10-08T06:09:23.684Z,540.00
2022-10-08T06:10:23.618Z,544.00
2022-10-08T06:11:23.567Z,556.00
2022-10-08T06:12:23.496Z,560.00
2022-10-08T06:13:23.445Z,568.00
2022-10-08T06:14:23.361Z,584.00
2022-10-08T06:15:23.299Z,608.00
2022-10-08T06:16:23.287Z,640.00
2022-10-08T06:17:23.170Z,712.00
2022-10-08T06:18:23.101Z,760.00
2022-10-08T06:19:23.040Z,712.00
2022-10-08T06:20:22.973Z,736.00
2022-10-08T06:21:22.911Z,748.00
2022-10-08T06:22:22.845Z,780.00
2022-10-08T06:23:22.782Z,860.00
2022-10-08T06:24:22.716Z,972.00
2022-10-08T06:25:22.653Z,1140.00
2022-10-08T06:26:22.585Z,1088.00
2022-10-08T06:27:22.534Z,1088.00
2022-10-08T06:28:22.625Z,1108.00
2022-10-08T06:29:22.418Z,1144.00
2022-10-08T06:30:22.349Z,1236.00
2022-10-08T06:31:22.333Z,1248.00
2022-10-08T06:32:22.207Z,1304.00
2022-10-08T06:33:22.141Z,1340.00
2022-10-08T06:34:22.072Z,1524.00
2022-10-08T06:35:22.040Z,1816.00
2022-10-08T06:36:21.976Z,1656.00
2022-10-08T06:37:21.905Z,1836.00
2022-10-08T06:38:21.835Z,1648.00
2022-10-08T06:39:21.757Z,1896.00
2022-10-08T06:40:21.698Z,2268.00
2022-10-08T06:41:21.635Z,2344.00
2022-10-08T06:42:21.567Z,2140.00
2022-10-08T06:43:21.508Z,2500.00
2022-10-08T06:44:21.431Z,2728.00
2022-10-08T06:45:21.367Z,3048.00
2022-10-08T06:46:21.368Z,3088.00
2022-10-08T06:47:21.255Z,2920.00
2022-10-08T06:48:21.180Z,3224.00
2022-10-08T06:49:21.118Z,3304.00
2022-10-08T06:50:21.055Z,3528.00
2022-10-08T06:51:20.983Z,3576.00
2022-10-08T06:52:20.925Z,3672.00
2022-10-08T06:53:20.865Z,3592.00
2022-10-08T06:54:20.790Z,3844.00
2022-10-08T06:55:20.817Z,3880.00
2022-10-08T06:56:20.664Z,3964.00
2022-10-08T06:57:20.598Z,3884.00
2022-10-08T06:58:20.540Z,3836.00
2022-10-08T06:59:20.472Z,4056.00
2022-10-08T07:00:20.411Z,4144.00
2022-10-08T07:01:20.373Z,2900.00
2022-10-08T07:02:20.348Z,3336.00
2022-10-08T07:03:20.218Z,2740.00
2022-10-08T07:04:20.175Z,2432.00
2022-10-08T07:05:20.097Z,1696.00
2022-10-08T07:06:20.040Z,1720.00
2022-10-08T07:07:19.972Z,1796.00
2022-10-08T07:08:19.903Z,2480.00
2022-10-08T07:09:19.846Z,5480.00
2022-10-08T07:10:19.775Z,4620.00
2022-10-08T07:11:19.716Z,2916.00
2022-10-08T07:12:19.649Z,3492.00
2022-10-08T07:13:19.584Z,6924.00
2022-10-08T07:14:19.682Z,7548.00
2022-10-08T07:15:19.463Z,8136.00
2022-10-08T07:16:21.088Z,8912.00
2022-10-08T07:17:19.333Z,9664.00
2022-10-08T07:18:19.284Z,10160.00
2022-10-08T07:19:19.207Z,9760.00
2022-10-08T07:20:19.143Z,9604.00
2022-10-08T07:21:19.083Z,8064.00
2022-10-08T07:22:19.017Z,8112.00
2022-10-08T07:23:18.960Z,6656.00
2022-10-08T07:24:18.896Z,6956.00
2022-10-08T07:25:18.832Z,6772.00
2022-10-08T07:26:18.769Z,7492.00
2022-10-08T07:27:18.710Z,6788.00
2022-10-08T07:28:18.681Z,6680.00
2022-10-08T07:29:18.591Z,6680.00
2022-10-08T07:30:18.521Z,6520.00
2022-10-08T07:31:18.509Z,5368.00
2022-10-08T07:32:18.400Z,5508.00
2022-10-08T07:33:18.338Z,5600.00
2022-10-08T07:34:18.283Z,5512.00
2022-10-08T07:35:18.222Z,5732.00
2022-10-08T07:36:18.151Z,5908.00
2022-10-08T07:37:18.090Z,6256.00
2022-10-08T07:38:18.028Z,6484.00
2022-10-08T07:39:17.988Z,6536.00
2022-10-08T07:40:18.037Z,6300.00
2022-10-08T07:41:17.977Z,6004.00
2022-10-08T07:42:17.776Z,6552.00
2022-10-08T07:43:19.768Z,6368.00
2022-10-08T07:44:17.668Z,4968.00
2022-10-08T07:45:17.597Z,5200.00
2022-10-08T07:46:17.536Z,5744.00
2022-10-08T07:47:17.475Z,6048.00
2022-10-08T07:48:17.410Z,6468.00
2022-10-08T07:49:17.351Z,6588.00
2022-10-08T07:50:17.286Z,7096.00
2022-10-08T07:51:17.224Z,8292.00
2022-10-08T07:52:17.168Z,8844.00
2022-10-08T07:53:17.106Z,8644.00
2022-10-08T07:54:17.038Z,9144.00
2022-10-08T07:55:16.985Z,9996.00
2022-10-08T07:56:16.925Z,9396.00
2022-10-08T07:57:16.854Z,9656.00
2022-10-08T07:58:16.792Z,10472.00
2022-10-08T07:59:16.737Z,10620.00
2022-10-08T08:00:16.672Z,11620.00
2022-10-08T08:01:16.709Z,11712.00
2022-10-08T08:02:16.576Z,12428.00
2022-10-08T08:03:16.495Z,12424.00
2022-10-08T08:04:16.432Z,12504.00
2022-10-08T08:05:16.366Z,12488.00
2022-10-08T08:06:16.305Z,12420.00
2022-10-08T08:07:16.251Z,12368.00
2022-10-08T08:08:16.185Z,12336.00
2022-10-08T08:09:16.126Z,12344.00
2022-10-08T08:10:16.062Z,12248.00
2022-10-08T08:11:16.005Z,12240.00
2022-10-08T08:12:15.942Z,12196.00
2022-10-08T08:13:15.888Z,12188.00
2022-10-08T08:14:15.830Z,12180.00
2022-10-08T08:15:15.780Z,12144.00
2022-10-08T08:16:15.794Z,12060.00
2022-10-08T08:17:15.643Z,12100.00
2022-10-08T08:18:15.584Z,12080.00
2022-10-08T08:19:15.525Z,12052.00
2022-10-08T08:20:15.468Z,11964.00
2022-10-08T08:21:15.409Z,11964.00
2022-10-08T08:22:15.345Z,11948.00
2022-10-08T08:23:15.285Z,11900.00
2022-10-08T08:24:15.230Z,11756.00
2022-10-08T08:25:15.166Z,11712.00
2022-10-08T08:26:15.108Z,11612.00
2022-10-08T08:27:15.054Z,11548.00
2022-10-08T08:28:15.061Z,11588.00
2022-10-08T08:29:14.930Z,11500.00
2022-10-08T08:30:14.867Z,11412.00
2022-10-08T08:31:14.813Z,11616.00
2022-10-08T08:32:14.813Z,11400.00
2022-10-08T08:33:14.700Z,11588.00
2022-10-08T08:34:14.641Z,11464.00
2022-10-08T08:35:14.597Z,11688.00
2022-10-08T08:36:14.516Z,11512.00
2022-10-08T08:37:14.471Z,11456.00
2022-10-08T08:38:14.394Z,11516.00
2022-10-08T08:39:14.339Z,11396.00
2022-10-08T08:40:14.281Z,11488.00
2022-10-08T08:41:17.407Z,4840.00
2022-10-08T08:42:14.160Z,3228.00
2022-10-08T08:43:14.106Z,9640.00
2022-10-08T08:44:14.042Z,5300.00
2022-10-08T08:45:34.344Z,11556.00
2022-10-08T08:46:13.969Z,11412.00
2022-10-08T08:47:13.867Z,11492.00
2022-10-08T08:48:13.810Z,11324.00
2022-10-08T08:49:13.750Z,11376.00
2022-10-08T08:50:13.689Z,11112.00
2022-10-08T08:51:13.644Z,9188.00
2022-10-08T08:52:13.581Z,11164.00
2022-10-08T08:53:13.513Z,11016.00
2022-10-08T08:54:13.471Z,10944.00
2022-10-08T08:55:13.398Z,10708.00
2022-10-08T08:56:13.341Z,10780.00
2022-10-08T08:57:13.278Z,11148.00
2022-10-08T08:58:13.220Z,10012.00
2022-10-08T08:59:13.167Z,9892.00
2022-10-08T09:00:13.101Z,10172.00
2022-10-08T09:01:13.099Z,11040.00
2022-10-08T09:02:12.985Z,11364.00
2022-10-08T09:03:12.931Z,4440.00
2022-10-08T09:04:12.879Z,4540.00
2022-10-08T09:05:12.927Z,4152.00
2022-10-08T09:06:12.764Z,3980.00
2022-10-08T09:07:12.717Z,11136.00
2022-10-08T09:08:12.638Z,4112.00
2022-10-08T09:09:12.588Z,3724.00
2022-10-08T09:10:12.526Z,3884.00
2022-10-08T09:11:12.466Z,3392.00
2022-10-08T09:12:12.418Z,3284.00
2022-10-08T09:13:12.350Z,2888.00
2022-10-08T09:14:12.288Z,3540.00
2022-10-08T09:15:12.231Z,4044.00
2022-10-08T09:16:12.197Z,4528.00
2022-10-08T09:17:12.126Z,4676.00
2022-10-08T09:18:12.051Z,4100.00
2022-10-08T09:19:11.991Z,3368.00
2022-10-08T09:20:11.934Z,3248.00
2022-10-08T09:21:11.873Z,3260.00
2022-10-08T09:22:11.814Z,3632.00
2022-10-08T09:23:11.753Z,4448.00
2022-10-08T09:24:11.702Z,4376.00
2022-10-08T09:25:11.638Z,3828.00
2022-10-08T09:26:11.577Z,3812.00
2022-10-08T09:27:11.516Z,3884.00
2022-10-08T09:28:11.497Z,3952.00
2022-10-08T09:29:11.396Z,3772.00
2022-10-08T09:30:11.338Z,3824.00
2022-10-08T09:31:11.295Z,3804.00
2022-10-08T09:32:11.219Z,3660.00
2022-10-08T09:33:11.159Z,3536.00
2022-10-08T09:34:11.104Z,3668.00
2022-10-08T09:35:11.044Z,4104.00
2022-10-08T09:36:10.980Z,4056.00
2022-10-08T09:37:10.921Z,4112.00
2022-10-08T09:38:10.861Z,4036.00
2022-10-08T09:39:10.799Z,4036.00
2022-10-08T09:40:10.820Z,3648.00
2022-10-08T09:41:10.682Z,3256.00
2022-10-08T09:42:10.619Z,2924.00
2022-10-08T09:43:10.558Z,2884.00
2022-10-08T09:44:10.503Z,2612.00
2022-10-08T09:45:10.438Z,2544.00
2022-10-08T09:46:10.408Z,2488.00
2022-10-08T09:47:10.318Z,2360.00
2022-10-08T09:48:10.261Z,2304.00
2022-10-08T09:49:10.202Z,2084.00
2022-10-08T09:50:10.139Z,1912.00
2022-10-08T09:51:10.082Z,952.00
2022-10-08T09:52:13.532Z,1024.00
2022-10-08T09:53:10.016Z,1132.00
2022-10-08T09:54:09.898Z,1116.00
2022-10-08T09:55:09.846Z,1056.00
2022-10-08T09:56:09.777Z,868.00
2022-10-08T09:57:09.718Z,816.00
2022-10-08T09:58:09.657Z,816.00
2022-10-08T09:59:09.597Z,808.00
2022-10-08T10:00:09.539Z,976.00
2022-10-08T10:01:09.544Z,1172.00
2022-10-08T10:02:09.419Z,1256.00
2022-10-08T10:03:09.395Z,1484.00
2022-10-08T10:04:09.344Z,1572.00
2022-10-08T10:05:09.256Z,1740.00
2022-10-08T10:06:09.186Z,1980.00
2022-10-08T10:07:09.132Z,2024.00
2022-10-08T10:08:09.064Z,2072.00
2022-10-08T10:09:08.989Z,2244.00
2022-10-08T10:10:08.946Z,2596.00
2022-10-08T10:11:08.894Z,2708.00
2022-10-08T10:12:08.813Z,2820.00
2022-10-08T10:13:08.746Z,2756.00
2022-10-08T10:14:08.700Z,2456.00
2022-10-08T10:15:08.637Z,2256.00
2022-10-08T10:16:08.568Z,2064.00
2022-10-08T10:17:08.616Z,1940.00
2022-10-08T10:18:08.448Z,1840.00
2022-10-08T10:19:08.408Z,1776.00
2022-10-08T10:20:08.330Z,1704.00
2022-10-08T10:21:08.291Z,1604.00
2022-10-08T10:22:08.205Z,1480.00
2022-10-08T10:23:08.148Z,1376.00
2022-10-08T10:24:08.098Z,1348.00
2022-10-08T10:25:08.023Z,1360.00
2022-10-08T10:26:07.992Z,1408.00
2022-10-08T10:27:07.906Z,1388.00
2022-10-08T10:28:07.871Z,1172.00
2022-10-08T10:29:07.822Z,940.00
2022-10-08T10:30:07.733Z,920.00
2022-10-08T10:31:07.729Z,948.00
2022-10-08T10:32:07.607Z,880.00
2022-10-08T10:33:07.559Z,824.00
2022-10-08T10:34:07.489Z,912.00
2022-10-08T10:35:07.429Z,1208.00
2022-10-08T10:36:07.359Z,1612.00
2022-10-08T10:37:07.303Z,1860.00
2022-10-08T10:38:07.249Z,1936.00
2022-10-08T10:39:07.182Z,1840.00
2022-10-08T10:40:07.132Z,1692.00
2022-10-08T10:41:07.061Z,1612.00
2022-10-08T10:42:07.006Z,1540.00
2022-10-08T10:43:06.957Z,1420.00
2022-10-08T10:44:06.886Z,1300.00
2022-10-08T10:45:06.816Z,1160.00
2022-10-08T10:46:06.792Z,1004.00
2022-10-08T10:47:06.695Z,836.00
2022-10-08T10:48:06.638Z,672.00
2022-10-08T10:49:06.577Z,584.00
2022-10-08T10:50:06.572Z,536.00
2022-10-08T10:51:06.458Z,556.00
2022-10-08T10:52:06.392Z,644.00
2022-10-08T10:53:06.331Z,736.00
2022-10-08T10:54:06.266Z,700.00
2022-10-08T10:55:06.210Z,640.00
2022-10-08T10:56:06.149Z,596.00
2022-10-08T10:57:06.085Z,576.00
2022-10-08T10:58:06.054Z,524.00
2022-10-08T10:59:05.964Z,432.00
2022-10-08T11:00:05.904Z,400.00
2022-10-08T11:01:05.920Z,404.00
2022-10-08T11:02:05.797Z,376.00
2022-10-08T11:03:05.824Z,400.00
2022-10-08T11:04:05.660Z,396.00
2022-10-08T11:05:05.605Z,364.00
2022-10-08T11:06:05.536Z,344.00
2022-10-08T11:07:05.518Z,328.00
2022-10-08T11:08:05.430Z,448.00
2022-10-08T11:09:05.365Z,600.00
2022-10-08T11:10:05.310Z,644.00
2022-10-08T11:11:05.241Z,612.00
2022-10-08T11:12:05.186Z,544.00
2022-10-08T11:13:05.109Z,660.00
2022-10-08T11:14:05.066Z,840.00
2022-10-08T11:15:05.004Z,968.00
2022-10-08T11:16:04.981Z,1108.00
2022-10-08T11:17:04.871Z,1248.00
2022-10-08T11:18:04.813Z,1240.00
2022-10-08T11:19:04.756Z,1180.00
2022-10-08T11:20:04.700Z,1204.00
2022-10-08T11:21:04.641Z,1148.00
2022-10-08T11:22:04.570Z,1036.00
2022-10-08T11:23:04.508Z,956.00
2022-10-08T11:24:04.457Z,960.00
2022-10-08T11:25:04.376Z,984.00
2022-10-08T11:26:21.986Z,1032.00
2022-10-08T11:27:04.259Z,1108.00
2022-10-08T11:28:04.259Z,1164.00
2022-10-08T11:29:04.136Z,1176.00
2022-10-08T11:30:04.099Z,1140.00
2022-10-08T11:31:04.098Z,1000.00
2022-10-08T11:32:03.959Z,860.00
2022-10-08T11:33:03.892Z,812.00
2022-10-08T11:34:03.835Z,840.00
2022-10-08T11:35:03.766Z,812.00
2022-10-08T11:36:03.713Z,872.00
2022-10-08T11:37:03.645Z,860.00
2022-10-08T11:38:03.586Z,824.00
2022-10-08T11:39:03.518Z,840.00
2022-10-08T11:40:03.469Z,852.00
2022-10-08T11:41:03.399Z,844.00
2022-10-08T11:42:03.338Z,824.00
2022-10-08T11:43:03.280Z,736.00
2022-10-08T11:44:03.214Z,624.00
2022-10-08T11:45:03.154Z,640.00
2022-10-08T11:46:03.200Z,748.00
2022-10-08T11:47:03.028Z,868.00
2022-10-08T11:48:05.400Z,1084.00
2022-10-08T11:49:02.920Z,1352.00
2022-10-08T11:50:02.864Z,1500.00
2022-10-08T11:51:02.793Z,1440.00
2022-10-08T11:52:02.735Z,1328.00
2022-10-08T11:53:02.668Z,1344.00
2022-10-08T11:54:02.604Z,1396.00
2022-10-08T11:55:02.545Z,1368.00
2022-10-08T11:56:02.493Z,1284.00
2022-10-08T11:57:02.426Z,1232.00
2022-10-08T11:58:09.648Z,1204.00
2022-10-08T11:59:02.297Z,1180.00
2022-10-08T12:00:08.019Z,1220.00
2022-10-08T12:01:02.173Z,1264.00
2022-10-08T12:02:02.177Z,1260.00
2022-10-08T12:03:02.124Z,1256.00
2022-10-08T12:04:01.991Z,1272.00
2022-10-08T12:05:01.925Z,1288.00
2022-10-08T12:06:01.883Z,1380.00
2022-10-08T12:07:01.807Z,1532.00
2022-10-08T12:08:01.744Z,1608.00
2022-10-08T12:09:01.712Z,1796.00
2022-10-08T12:10:01.649Z,1832.00
2022-10-08T12:11:01.608Z,1792.00
2022-10-08T12:12:01.541Z,1640.00
2022-10-08T12:13:01.447Z,1556.00
2022-10-08T12:14:01.374Z,1528.00
2022-10-08T12:15:01.323Z,1620.00
2022-10-08T12:16:01.307Z,1716.00
2022-10-08T12:17:01.186Z,1784.00
2022-10-08T12:18:01.141Z,1720.00
2022-10-08T12:19:01.077Z,1720.00
2022-10-08T12:20:01.028Z,1808.00
2022-10-08T12:21:00.954Z,2040.00
2022-10-08T12:22:00.892Z,1908.00
2022-10-08T12:23:00.833Z,1776.00
2022-10-08T12:24:00.765Z,1884.00
2022-10-08T12:25:00.705Z,1664.00
2022-10-08T12:26:00.665Z,1456.00
2022-10-08T12:27:00.589Z,1380.00
2022-10-08T12:28:00.561Z,1360.00
2022-10-08T12:29:00.467Z,1336.00
2022-10-08T12:30:00.402Z,1292.00
2022-10-08T12:31:00.399Z,1224.00
2022-10-08T12:32:00.276Z,1100.00
2022-10-08T12:33:00.219Z,1040.00
2022-10-08T12:34:00.157Z,1228.00
2022-10-08T12:35:00.111Z,1388.00
2022-10-08T12:36:00.034Z,1412.00